ETD67 OMAA-EGLL
Flight info
| Callsign | ETD67 |
|---|---|
| Flight time | N/A |
| Altitude | 36000 |
| Route | ORNEL T560 ELUDA G783 RIGIL M628 PEKEM/N0455F280 Q332 MEDPO Y511 ITRUX/N0495F360 Y511 PMA Z712 PEGUR/N0492F380 Z712 WEJ L677 CVO L617 TANSA UL613 YNN UL611 TUMBO DCT TIKSA/N0488F400 DCT SIPAL DCT PEVAL DCT BABAG DCT SAFFA DCT ELMUR L613 HOC DCT LUL DCT RLP DCT ROTSI DCT KOTUN DCT NINAL DCT ABNUR DCT DIMAL DCT ALESO |
| Aircraft | A388/J-SADE2E3FGHIJ3J4J5M1RWXY/LB1D1 |
Departure
| Time | 2026-04-30 22:53 |
|---|---|
| Airport | Zayed International Airport (OMAA) |
Arrival
| Time | N/A |
|---|---|
| Airport | London Heathrow Airport (EGLL) |
| Time | Latitude | Longitude | Altitude | Speed | Heading |
|---|---|---|---|---|---|
| 2026-04-30 22:31 | 24.43195 | 54.64199 | 86 ft | 0 kts | 218° |
| 2026-04-30 22:42 | 24.43231 | 54.64230 | 86 ft | 2 kts | 211° |
| 2026-04-30 22:43 | 24.43256 | 54.64237 | 85 ft | 3 kts | 185° |
| 2026-04-30 22:43 | 24.43292 | 54.64229 | 86 ft | 3 kts | 155° |
| 2026-04-30 22:44 | 24.43315 | 54.64205 | 84 ft | 0 kts | 127° |
| 2026-04-30 22:45 | 24.43302 | 54.64224 | 84 ft | 5 kts | 126° |
| 2026-04-30 22:46 | 24.43296 | 54.64309 | 86 ft | 7 kts | 40° |
| 2026-04-30 22:47 | 24.43373 | 54.64623 | 85 ft | 20 kts | 127° |
| 2026-04-30 22:47 | 24.43172 | 54.64907 | 87 ft | 27 kts | 128° |
| 2026-04-30 22:48 | 24.42931 | 54.65244 | 86 ft | 28 kts | 128° |
| 2026-04-30 22:49 | 24.42577 | 54.65747 | 85 ft | 27 kts | 127° |
| 2026-04-30 22:49 | 24.42227 | 54.66237 | 87 ft | 27 kts | 128° |
| 2026-04-30 22:50 | 24.42045 | 54.66580 | 84 ft | 2 kts | 51° |
| 2026-04-30 22:51 | 24.42108 | 54.66655 | 84 ft | 12 kts | 36° |
| 2026-04-30 22:51 | 24.42307 | 54.66523 | 85 ft | 54 kts | 307° |
| 2026-04-30 22:52 | 24.42687 | 54.65986 | 87 ft | 124 kts | 308° |
| 2026-04-30 22:52 | 24.43997 | 54.64161 | 546 ft | 158 kts | 309° |
| 2026-04-30 22:53 | 24.45412 | 54.62188 | 1226 ft | 173 kts | 310° |
| 2026-04-30 22:53 | 24.46916 | 54.59982 | 1732 ft | 192 kts | 311° |
| 2026-04-30 22:53 | 24.47769 | 54.58787 | 1831 ft | 204 kts | 311° |
| 2026-04-30 22:54 | 24.49661 | 54.56157 | 2374 ft | 229 kts | 310° |
| 2026-04-30 22:55 | 24.52642 | 54.51965 | 4156 ft | 236 kts | 308° |
| 2026-04-30 22:55 | 24.54675 | 54.49082 | 5372 ft | 242 kts | 307° |
| 2026-04-30 22:56 | 24.56761 | 54.46128 | 6581 ft | 247 kts | 306° |
| 2026-04-30 22:56 | 24.60314 | 54.42013 | 8419 ft | 259 kts | 337° |
| 2026-04-30 22:57 | 24.63929 | 54.42361 | 8982 ft | 276 kts | 27° |
| 2026-04-30 22:57 | 24.66191 | 54.45592 | 8981 ft | 275 kts | 83° |
| 2026-04-30 22:58 | 24.65712 | 54.49607 | 8986 ft | 296 kts | 107° |
| 2026-04-30 22:59 | 24.64484 | 54.55669 | 8988 ft | 307 kts | 102° |
| 2026-04-30 22:59 | 24.63309 | 54.63396 | 8990 ft | 306 kts | 105° |